sensor_id;sensor_type;location;lat;lon;timestamp;P1;durP1;ratioP1;P2;durP2;ratioP2
17228;SDS011;8731;50.364;8.958;2023-04-01T00:02:58;7.47;;;1.37;;
17228;SDS011;8731;50.364;8.958;2023-04-01T00:07:22;4.90;;;1.57;;
17228;SDS011;8731;50.364;8.958;2023-04-01T00:11:45;4.97;;;1.23;;
17228;SDS011;8731;50.364;8.958;2023-04-01T00:16:07;5.03;;;1.30;;
17228;SDS011;8731;50.364;8.958;2023-04-01T00:20:30;6.47;;;1.20;;
17228;SDS011;8731;50.364;8.958;2023-04-01T00:24:54;4.83;;;1.30;;
17228;SDS011;8731;50.364;8.958;2023-04-01T00:29:16;4.87;;;1.30;;
17228;SDS011;8731;50.364;8.958;2023-04-01T00:33:39;4.43;;;1.30;;
17228;SDS011;8731;50.364;8.958;2023-04-01T00:38:02;5.77;;;1.77;;
17228;SDS011;8731;50.364;8.958;2023-04-01T00:42:26;4.60;;;1.50;;
17228;SDS011;8731;50.364;8.958;2023-04-01T00:46:48;4.97;;;2.10;;
17228;SDS011;8731;50.364;8.958;2023-04-01T00:51:13;3.90;;;1.40;;
17228;SDS011;8731;50.364;8.958;2023-04-01T00:55:41;3.87;;;1.17;;
17228;SDS011;8731;50.364;8.958;2023-04-01T01:00:12;6.27;;;1.37;;
17228;SDS011;8731;50.364;8.958;2023-04-01T01:04:38;3.43;;;1.13;;
17228;SDS011;8731;50.364;8.958;2023-04-01T01:09:06;4.20;;;1.40;;
17228;SDS011;8731;50.364;8.958;2023-04-01T01:13:46;8.30;;;1.33;;
17228;SDS011;8731;50.364;8.958;2023-04-01T01:18:23;4.07;;;1.27;;
17228;SDS011;8731;50.364;8.958;2023-04-01T01:22:59;6.53;;;1.60;;
17228;SDS011;8731;50.364;8.958;2023-04-01T01:28:13;6.80;;;1.60;;
17228;SDS011;8731;50.364;8.958;2023-04-01T01:33:01;5.40;;;1.47;;
17228;SDS011;8731;50.364;8.958;2023-04-01T01:37:59;5.67;;;1.60;;
17228;SDS011;8731;50.364;8.958;2023-04-01T01:42:25;7.80;;;1.50;;
17228;SDS011;8731;50.364;8.958;2023-04-01T01:46:51;4.77;;;1.30;;
17228;SDS011;8731;50.364;8.958;2023-04-01T01:51:13;7.80;;;1.50;;
17228;SDS011;8731;50.364;8.958;2023-04-01T01:55:39;4.60;;;1.37;;
17228;SDS011;8731;50.364;8.958;2023-04-01T02:00:04;6.50;;;1.23;;
17228;SDS011;8731;50.364;8.958;2023-04-01T02:04:34;5.37;;;1.30;;
17228;SDS011;8731;50.364;8.958;2023-04-01T02:09:03;7.33;;;1.57;;
17228;SDS011;8731;50.364;8.958;2023-04-01T02:13:33;4.77;;;1.40;;
17228;SDS011;8731;50.364;8.958;2023-04-01T02:18:01;7.10;;;1.30;;
17228;SDS011;8731;50.364;8.958;2023-04-01T02:22:25;3.93;;;1.20;;
17228;SDS011;8731;50.364;8.958;2023-04-01T02:26:52;4.13;;;1.17;;
17228;SDS011;8731;50.364;8.958;2023-04-01T02:31:16;4.70;;;1.50;;
17228;SDS011;8731;50.364;8.958;2023-04-01T02:35:39;3.47;;;1.10;;
17228;SDS011;8731;50.364;8.958;2023-04-01T02:40:02;5.47;;;1.13;;
17228;SDS011;8731;50.364;8.958;2023-04-01T02:44:27;4.27;;;1.03;;
17228;SDS011;8731;50.364;8.958;2023-04-01T02:48:51;6.23;;;1.40;;
17228;SDS011;8731;50.364;8.958;2023-04-01T02:53:13;4.20;;;1.03;;
17228;SDS011;8731;50.364;8.958;2023-04-01T02:57:36;4.83;;;1.20;;
17228;SDS011;8731;50.364;8.958;2023-04-01T03:01:58;4.60;;;1.07;;
17228;SDS011;8731;50.364;8.958;2023-04-01T03:06:22;5.37;;;1.20;;
17228;SDS011;8731;50.364;8.958;2023-04-01T03:10:44;6.73;;;1.50;;
17228;SDS011;8731;50.364;8.958;2023-04-01T03:15:08;4.40;;;1.30;;
17228;SDS011;8731;50.364;8.958;2023-04-01T03:19:34;3.50;;;1.33;;
17228;SDS011;8731;50.364;8.958;2023-04-01T03:24:02;5.60;;;1.43;;
17228;SDS011;8731;50.364;8.958;2023-04-01T03:28:24;5.90;;;1.10;;
17228;SDS011;8731;50.364;8.958;2023-04-01T03:32:47;4.07;;;0.93;;
17228;SDS011;8731;50.364;8.958;2023-04-01T03:37:09;5.57;;;1.40;;
17228;SDS011;8731;50.364;8.958;2023-04-01T03:41:34;3.20;;;1.00;;
17228;SDS011;8731;50.364;8.958;2023-04-01T03:45:58;5.77;;;1.27;;
17228;SDS011;8731;50.364;8.958;2023-04-01T03:50:20;6.63;;;1.20;;
17228;SDS011;8731;50.364;8.958;2023-04-01T03:54:43;4.17;;;1.03;;
17228;SDS011;8731;50.364;8.958;2023-04-01T03:59:07;3.30;;;1.00;;
17228;SDS011;8731;50.364;8.958;2023-04-01T04:03:30;5.97;;;1.20;;
17228;SDS011;8731;50.364;8.958;2023-04-01T04:07:52;5.30;;;1.67;;
17228;SDS011;8731;50.364;8.958;2023-04-01T04:12:15;4.73;;;1.10;;
17228;SDS011;8731;50.364;8.958;2023-04-01T04:16:39;3.57;;;1.10;;
17228;SDS011;8731;50.364;8.958;2023-04-01T04:21:02;4.00;;;1.10;;
17228;SDS011;8731;50.364;8.958;2023-04-01T04:25:25;4.57;;;1.20;;
17228;SDS011;8731;50.364;8.958;2023-04-01T04:29:48;8.60;;;2.60;;
17228;SDS011;8731;50.364;8.958;2023-04-01T04:34:12;10.60;;;4.17;;
17228;SDS011;8731;50.364;8.958;2023-04-01T04:38:34;6.43;;;2.63;;
17228;SDS011;8731;50.364;8.958;2023-04-01T04:42:57;5.50;;;2.87;;
17228;SDS011;8731;50.364;8.958;2023-04-01T04:47:19;6.37;;;2.20;;
17228;SDS011;8731;50.364;8.958;2023-04-01T04:51:43;7.73;;;1.53;;
17228;SDS011;8731;50.364;8.958;2023-04-01T04:56:08;4.67;;;1.37;;
17228;SDS011;8731;50.364;8.958;2023-04-01T05:00:42;5.53;;;1.20;;
17228;SDS011;8731;50.364;8.958;2023-04-01T05:05:13;3.83;;;1.47;;
17228;SDS011;8731;50.364;8.958;2023-04-01T05:09:36;7.20;;;1.97;;
17228;SDS011;8731;50.364;8.958;2023-04-01T05:13:59;5.63;;;1.77;;
17228;SDS011;8731;50.364;8.958;2023-04-01T05:18:25;3.47;;;1.10;;
17228;SDS011;8731;50.364;8.958;2023-04-01T05:22:47;5.80;;;1.53;;
17228;SDS011;8731;50.364;8.958;2023-04-01T05:27:12;4.40;;;1.30;;
17228;SDS011;8731;50.364;8.958;2023-04-01T05:31:35;5.10;;;1.30;;
17228;SDS011;8731;50.364;8.958;2023-04-01T05:36:05;7.53;;;1.60;;
17228;SDS011;8731;50.364;8.958;2023-04-01T05:40:29;3.47;;;1.17;;
17228;SDS011;8731;50.364;8.958;2023-04-01T05:44:54;5.80;;;1.23;;
17228;SDS011;8731;50.364;8.958;2023-04-01T05:49:51;6.63;;;1.37;;
17228;SDS011;8731;50.364;8.958;2023-04-01T05:54:15;4.17;;;1.07;;
17228;SDS011;8731;50.364;8.958;2023-04-01T05:58:39;2.93;;;1.17;;
17228;SDS011;8731;50.364;8.958;2023-04-01T06:03:04;4.60;;;1.20;;
17228;SDS011;8731;50.364;8.958;2023-04-01T06:07:26;2.57;;;1.20;;
17228;SDS011;8731;50.364;8.958;2023-04-01T06:17:07;4.10;;;1.30;;
17228;SDS011;8731;50.364;8.958;2023-04-01T06:22:03;4.80;;;0.90;;
17228;SDS011;8731;50.364;8.958;2023-04-01T06:27:12;3.20;;;1.30;;
17228;SDS011;8731;50.364;8.958;2023-04-01T06:31:56;4.17;;;1.60;;
17228;SDS011;8731;50.364;8.958;2023-04-01T06:36:54;4.43;;;1.30;;
17228;SDS011;8731;50.364;8.958;2023-04-01T06:42:02;6.43;;;2.60;;
17228;SDS011;8731;50.364;8.958;2023-04-01T06:46:50;4.73;;;1.60;;
17228;SDS011;8731;50.364;8.958;2023-04-01T06:51:39;4.30;;;1.50;;
17228;SDS011;8731;50.364;8.958;2023-04-01T06:56:33;6.40;;;3.67;;
17228;SDS011;8731;50.364;8.958;2023-04-01T07:01:08;1.60;;;0.80;;
17228;SDS011;8731;50.364;8.958;2023-04-01T07:05:38;5.17;;;1.20;;
17228;SDS011;8731;50.364;8.958;2023-04-01T07:10:03;4.33;;;1.30;;
17228;SDS011;8731;50.364;8.958;2023-04-01T07:14:54;2.23;;;0.83;;
17228;SDS011;8731;50.364;8.958;2023-04-01T07:19:21;3.90;;;1.23;;
17228;SDS011;8731;50.364;8.958;2023-04-01T07:24:00;4.83;;;2.07;;
17228;SDS011;8731;50.364;8.958;2023-04-01T07:28:36;2.47;;;1.43;;
17228;SDS011;8731;50.364;8.958;2023-04-01T07:33:19;3.33;;;1.43;;
17228;SDS011;8731;50.364;8.958;2023-04-01T07:37:55;5.60;;;1.90;;
17228;SDS011;8731;50.364;8.958;2023-04-01T07:42:37;3.70;;;1.30;;
17228;SDS011;8731;50.364;8.958;2023-04-01T07:47:22;3.47;;;1.23;;
17228;SDS011;8731;50.364;8.958;2023-04-01T07:52:19;3.10;;;1.00;;
17228;SDS011;8731;50.364;8.958;2023-04-01T07:57:00;2.33;;;0.90;;
17228;SDS011;8731;50.364;8.958;2023-04-01T08:01:43;2.43;;;1.27;;
17228;SDS011;8731;50.364;8.958;2023-04-01T08:06:16;2.53;;;1.10;;
17228;SDS011;8731;50.364;8.958;2023-04-01T08:10:52;2.53;;;0.80;;
17228;SDS011;8731;50.364;8.958;2023-04-01T08:15:42;4.20;;;1.37;;
17228;SDS011;8731;50.364;8.958;2023-04-01T08:20:33;4.33;;;1.40;;
17228;SDS011;8731;50.364;8.958;2023-04-01T08:25:04;2.63;;;1.07;;
17228;SDS011;8731;50.364;8.958;2023-04-01T08:29:39;3.23;;;1.17;;
17228;SDS011;8731;50.364;8.958;2023-04-01T08:34:10;2.93;;;1.40;;
17228;SDS011;8731;50.364;8.958;2023-04-01T08:38:42;2.17;;;1.30;;
17228;SDS011;8731;50.364;8.958;2023-04-01T08:43:12;2.37;;;1.37;;
17228;SDS011;8731;50.364;8.958;2023-04-01T08:47:58;2.03;;;1.13;;
17228;SDS011;8731;50.364;8.958;2023-04-01T08:53:06;2.13;;;1.00;;
17228;SDS011;8731;50.364;8.958;2023-04-01T08:57:45;5.40;;;1.93;;
17228;SDS011;8731;50.364;8.958;2023-04-01T09:02:48;1.60;;;0.73;;
17228;SDS011;8731;50.364;8.958;2023-04-01T09:07:38;1.07;;;0.77;;
17228;SDS011;8731;50.364;8.958;2023-04-01T09:12:19;1.53;;;0.73;;
17228;SDS011;8731;50.364;8.958;2023-04-01T09:17:17;1.87;;;0.90;;
17228;SDS011;8731;50.364;8.958;2023-04-01T09:22:17;1.73;;;0.87;;
17228;SDS011;8731;50.364;8.958;2023-04-01T09:26:57;2.83;;;1.70;;
17228;SDS011;8731;50.364;8.958;2023-04-01T09:31:32;1.23;;;1.00;;
17228;SDS011;8731;50.364;8.958;2023-04-01T09:36:43;3.03;;;1.80;;
17228;SDS011;8731;50.364;8.958;2023-04-01T09:41:15;2.90;;;1.90;;
17228;SDS011;8731;50.364;8.958;2023-04-01T09:46:20;4.30;;;2.60;;
17228;SDS011;8731;50.364;8.958;2023-04-01T09:50:57;2.87;;;2.20;;
17228;SDS011;8731;50.364;8.958;2023-04-01T10:06:21;2.10;;;1.10;;
17228;SDS011;8731;50.364;8.958;2023-04-01T10:11:22;1.67;;;1.13;;
17228;SDS011;8731;50.364;8.958;2023-04-01T10:21:33;2.03;;;1.40;;
17228;SDS011;8731;50.364;8.958;2023-04-01T10:37:19;1.53;;;1.00;;
17228;SDS011;8731;50.364;8.958;2023-04-01T10:42:26;1.67;;;1.10;;
17228;SDS011;8731;50.364;8.958;2023-04-01T11:09:21;3.57;;;2.50;;
17228;SDS011;8731;50.364;8.958;2023-04-01T11:30:19;3.77;;;3.10;;
17228;SDS011;8731;50.364;8.958;2023-04-01T11:34:57;32.10;;;14.73;;
17228;SDS011;8731;50.364;8.958;2023-04-01T11:39:49;2.07;;;1.90;;
17228;SDS011;8731;50.364;8.958;2023-04-01T11:45:01;3.80;;;2.50;;
17228;SDS011;8731;50.364;8.958;2023-04-01T11:49:42;1.97;;;1.67;;
17228;SDS011;8731;50.364;8.958;2023-04-01T11:59:44;3.60;;;2.20;;
17228;SDS011;8731;50.364;8.958;2023-04-01T12:05:03;12.33;;;6.17;;
17228;SDS011;8731;50.364;8.958;2023-04-01T12:09:53;1.17;;;1.07;;
17228;SDS011;8731;50.364;8.958;2023-04-01T12:14:30;3.23;;;1.77;;
17228;SDS011;8731;50.364;8.958;2023-04-01T12:19:10;2.27;;;1.60;;
17228;SDS011;8731;50.364;8.958;2023-04-01T12:23:54;2.10;;;1.87;;
17228;SDS011;8731;50.364;8.958;2023-04-01T12:28:49;2.37;;;1.70;;
17228;SDS011;8731;50.364;8.958;2023-04-01T12:38:43;2.23;;;1.20;;
17228;SDS011;8731;50.364;8.958;2023-04-01T12:48:48;1.33;;;1.10;;
17228;SDS011;8731;50.364;8.958;2023-04-01T12:53:59;2.90;;;2.60;;
17228;SDS011;8731;50.364;8.958;2023-04-01T12:58:54;2.17;;;1.97;;
17228;SDS011;8731;50.364;8.958;2023-04-01T13:09:16;3.00;;;2.70;;
17228;SDS011;8731;50.364;8.958;2023-04-01T13:18:57;1.20;;;0.90;;
17228;SDS011;8731;50.364;8.958;2023-04-01T13:23:33;0.80;;;0.80;;
17228;SDS011;8731;50.364;8.958;2023-04-01T13:28:11;1.40;;;1.30;;
17228;SDS011;8731;50.364;8.958;2023-04-01T13:32:44;0.87;;;0.80;;
17228;SDS011;8731;50.364;8.958;2023-04-01T13:37:21;1.40;;;1.30;;
17228;SDS011;8731;50.364;8.958;2023-04-01T13:42:05;1.50;;;1.40;;
17228;SDS011;8731;50.364;8.958;2023-04-01T13:46:58;1.20;;;1.00;;
17228;SDS011;8731;50.364;8.958;2023-04-01T13:57:01;1.53;;;1.40;;
17228;SDS011;8731;50.364;8.958;2023-04-01T14:01:50;1.97;;;1.60;;
17228;SDS011;8731;50.364;8.958;2023-04-01T14:06:28;3.73;;;3.27;;
17228;SDS011;8731;50.364;8.958;2023-04-01T14:11:04;2.00;;;1.80;;
17228;SDS011;8731;50.364;8.958;2023-04-01T14:15:53;3.33;;;2.80;;
17228;SDS011;8731;50.364;8.958;2023-04-01T14:20:32;1.80;;;1.70;;
17228;SDS011;8731;50.364;8.958;2023-04-01T14:30:14;1.60;;;1.20;;
17228;SDS011;8731;50.364;8.958;2023-04-01T14:34:59;2.40;;;1.83;;
17228;SDS011;8731;50.364;8.958;2023-04-01T14:44:57;2.60;;;1.50;;
17228;SDS011;8731;50.364;8.958;2023-04-01T14:50:02;2.93;;;1.93;;
17228;SDS011;8731;50.364;8.958;2023-04-01T14:54:35;5.57;;;3.80;;
17228;SDS011;8731;50.364;8.958;2023-04-01T14:59:04;3.27;;;2.67;;
17228;SDS011;8731;50.364;8.958;2023-04-01T15:03:36;5.90;;;4.70;;
17228;SDS011;8731;50.364;8.958;2023-04-01T15:08:14;2.00;;;1.70;;
17228;SDS011;8731;50.364;8.958;2023-04-01T15:12:46;3.57;;;2.77;;
17228;SDS011;8731;50.364;8.958;2023-04-01T15:22:32;0.70;;;0.70;;
17228;SDS011;8731;50.364;8.958;2023-04-01T15:27:15;0.60;;;0.60;;
17228;SDS011;8731;50.364;8.958;2023-04-01T15:31:53;1.23;;;0.90;;
17228;SDS011;8731;50.364;8.958;2023-04-01T15:36:28;1.30;;;1.10;;
17228;SDS011;8731;50.364;8.958;2023-04-01T15:41:07;1.37;;;1.27;;
17228;SDS011;8731;50.364;8.958;2023-04-01T15:45:43;5.53;;;3.57;;
17228;SDS011;8731;50.364;8.958;2023-04-01T15:50:26;6.80;;;5.17;;
17228;SDS011;8731;50.364;8.958;2023-04-01T15:55:21;5.27;;;3.97;;
17228;SDS011;8731;50.364;8.958;2023-04-01T16:00:06;2.03;;;1.70;;
17228;SDS011;8731;50.364;8.958;2023-04-01T16:04:45;2.07;;;1.10;;
17228;SDS011;8731;50.364;8.958;2023-04-01T16:09:19;4.03;;;1.70;;
17228;SDS011;8731;50.364;8.958;2023-04-01T16:14:23;4.03;;;2.20;;
17228;SDS011;8731;50.364;8.958;2023-04-01T16:19:05;2.93;;;1.20;;
17228;SDS011;8731;50.364;8.958;2023-04-01T16:23:55;3.43;;;1.90;;
17228;SDS011;8731;50.364;8.958;2023-04-01T16:28:27;2.60;;;2.27;;
17228;SDS011;8731;50.364;8.958;2023-04-01T16:32:59;2.10;;;1.90;;
17228;SDS011;8731;50.364;8.958;2023-04-01T16:37:31;4.27;;;3.07;;
17228;SDS011;8731;50.364;8.958;2023-04-01T16:42:10;2.60;;;1.70;;
17228;SDS011;8731;50.364;8.958;2023-04-01T16:46:50;3.70;;;2.27;;
17228;SDS011;8731;50.364;8.958;2023-04-01T16:51:18;3.03;;;2.20;;
17228;SDS011;8731;50.364;8.958;2023-04-01T16:55:46;3.33;;;2.13;;
17228;SDS011;8731;50.364;8.958;2023-04-01T17:00:16;3.40;;;2.50;;
17228;SDS011;8731;50.364;8.958;2023-04-01T17:04:45;14.23;;;8.63;;
17228;SDS011;8731;50.364;8.958;2023-04-01T17:09:22;16.47;;;9.90;;
17228;SDS011;8731;50.364;8.958;2023-04-01T17:14:01;20.97;;;11.67;;
17228;SDS011;8731;50.364;8.958;2023-04-01T17:18:40;5.47;;;3.50;;
17228;SDS011;8731;50.364;8.958;2023-04-01T17:23:19;3.70;;;1.80;;
17228;SDS011;8731;50.364;8.958;2023-04-01T17:27:56;1.20;;;1.00;;
17228;SDS011;8731;50.364;8.958;2023-04-01T17:32:35;2.57;;;0.90;;
17228;SDS011;8731;50.364;8.958;2023-04-01T17:37:28;1.33;;;0.80;;
17228;SDS011;8731;50.364;8.958;2023-04-01T17:42:09;1.50;;;1.30;;
17228;SDS011;8731;50.364;8.958;2023-04-01T17:46:41;2.80;;;2.00;;
17228;SDS011;8731;50.364;8.958;2023-04-01T17:51:22;2.43;;;2.03;;
17228;SDS011;8731;50.364;8.958;2023-04-01T17:56:00;3.13;;;2.20;;
17228;SDS011;8731;50.364;8.958;2023-04-01T18:00:37;1.70;;;1.53;;
17228;SDS011;8731;50.364;8.958;2023-04-01T18:10:17;1.50;;;0.63;;
17228;SDS011;8731;50.364;8.958;2023-04-01T18:15:04;1.37;;;0.50;;
17228;SDS011;8731;50.364;8.958;2023-04-01T18:19:45;1.23;;;1.00;;
17228;SDS011;8731;50.364;8.958;2023-04-01T18:24:45;6.17;;;4.57;;
17228;SDS011;8731;50.364;8.958;2023-04-01T18:29:24;1.87;;;1.50;;
17228;SDS011;8731;50.364;8.958;2023-04-01T18:33:59;2.07;;;1.20;;
17228;SDS011;8731;50.364;8.958;2023-04-01T18:38:30;1.10;;;1.00;;
17228;SDS011;8731;50.364;8.958;2023-04-01T18:43:05;1.70;;;1.00;;
17228;SDS011;8731;50.364;8.958;2023-04-01T18:47:38;1.63;;;1.07;;
17228;SDS011;8731;50.364;8.958;2023-04-01T18:52:13;1.93;;;1.40;;
17228;SDS011;8731;50.364;8.958;2023-04-01T18:56:44;1.17;;;0.90;;
17228;SDS011;8731;50.364;8.958;2023-04-01T19:01:12;1.63;;;1.17;;
17228;SDS011;8731;50.364;8.958;2023-04-01T19:05:44;1.20;;;1.07;;
17228;SDS011;8731;50.364;8.958;2023-04-01T19:10:26;1.33;;;1.23;;
17228;SDS011;8731;50.364;8.958;2023-04-01T19:15:09;2.30;;;1.37;;
17228;SDS011;8731;50.364;8.958;2023-04-01T19:19:50;4.33;;;3.63;;
17228;SDS011;8731;50.364;8.958;2023-04-01T19:29:36;4.13;;;3.13;;
17228;SDS011;8731;50.364;8.958;2023-04-01T19:34:19;7.23;;;5.07;;
17228;SDS011;8731;50.364;8.958;2023-04-01T19:39:00;8.57;;;5.27;;
17228;SDS011;8731;50.364;8.958;2023-04-01T19:43:44;5.57;;;4.57;;
17228;SDS011;8731;50.364;8.958;2023-04-01T19:48:27;10.90;;;6.73;;
17228;SDS011;8731;50.364;8.958;2023-04-01T19:53:07;16.50;;;11.53;;
17228;SDS011;8731;50.364;8.958;2023-04-01T19:57:45;18.80;;;11.10;;
17228;SDS011;8731;50.364;8.958;2023-04-01T20:02:30;12.10;;;6.10;;
17228;SDS011;8731;50.364;8.958;2023-04-01T20:07:05;18.23;;;10.63;;
17228;SDS011;8731;50.364;8.958;2023-04-01T20:11:38;6.87;;;4.20;;
17228;SDS011;8731;50.364;8.958;2023-04-01T20:16:18;14.27;;;9.17;;
17228;SDS011;8731;50.364;8.958;2023-04-01T20:20:51;5.13;;;3.17;;
17228;SDS011;8731;50.364;8.958;2023-04-01T20:25:18;3.77;;;2.40;;
17228;SDS011;8731;50.364;8.958;2023-04-01T20:29:53;3.33;;;2.33;;
17228;SDS011;8731;50.364;8.958;2023-04-01T20:39:52;2.73;;;2.17;;
17228;SDS011;8731;50.364;8.958;2023-04-01T20:44:42;2.83;;;1.80;;
17228;SDS011;8731;50.364;8.958;2023-04-01T20:49:42;2.23;;;1.60;;
17228;SDS011;8731;50.364;8.958;2023-04-01T20:54:20;2.83;;;1.30;;
17228;SDS011;8731;50.364;8.958;2023-04-01T20:59:16;3.33;;;2.00;;
17228;SDS011;8731;50.364;8.958;2023-04-01T21:04:00;4.67;;;3.17;;
17228;SDS011;8731;50.364;8.958;2023-04-01T21:08:49;3.70;;;2.70;;
17228;SDS011;8731;50.364;8.958;2023-04-01T21:13:40;5.40;;;3.00;;
17228;SDS011;8731;50.364;8.958;2023-04-01T21:18:24;2.73;;;1.70;;
17228;SDS011;8731;50.364;8.958;2023-04-01T21:28:05;5.33;;;2.60;;
17228;SDS011;8731;50.364;8.958;2023-04-01T21:32:58;4.83;;;2.60;;
17228;SDS011;8731;50.364;8.958;2023-04-01T21:42:37;2.37;;;1.97;;
17228;SDS011;8731;50.364;8.958;2023-04-01T22:08:40;4.70;;;3.10;;
17228;SDS011;8731;50.364;8.958;2023-04-01T22:13:31;4.40;;;2.10;;
17228;SDS011;8731;50.364;8.958;2023-04-01T22:18:05;2.77;;;2.23;;
17228;SDS011;8731;50.364;8.958;2023-04-01T22:22:47;2.87;;;2.17;;
17228;SDS011;8731;50.364;8.958;2023-04-01T22:27:24;5.10;;;2.70;;
17228;SDS011;8731;50.364;8.958;2023-04-01T22:31:58;5.10;;;3.17;;
17228;SDS011;8731;50.364;8.958;2023-04-01T22:36:29;3.80;;;2.07;;
17228;SDS011;8731;50.364;8.958;2023-04-01T22:41:04;2.67;;;1.70;;
17228;SDS011;8731;50.364;8.958;2023-04-01T22:50:36;5.33;;;3.33;;
17228;SDS011;8731;50.364;8.958;2023-04-01T22:55:09;5.93;;;3.40;;
17228;SDS011;8731;50.364;8.958;2023-04-01T22:59:42;3.37;;;2.30;;
17228;SDS011;8731;50.364;8.958;2023-04-01T23:04:15;3.10;;;2.80;;
17228;SDS011;8731;50.364;8.958;2023-04-01T23:08:50;3.50;;;3.20;;
17228;SDS011;8731;50.364;8.958;2023-04-01T23:13:29;4.93;;;3.70;;
17228;SDS011;8731;50.364;8.958;2023-04-01T23:22:49;5.87;;;4.00;;
17228;SDS011;8731;50.364;8.958;2023-04-01T23:27:30;10.03;;;3.97;;
17228;SDS011;8731;50.364;8.958;2023-04-01T23:32:01;7.23;;;4.70;;
17228;SDS011;8731;50.364;8.958;2023-04-01T23:36:25;8.17;;;4.57;;
17228;SDS011;8731;50.364;8.958;2023-04-01T23:40:52;7.13;;;4.83;;
17228;SDS011;8731;50.364;8.958;2023-04-01T23:45:17;5.30;;;4.80;;
17228;SDS011;8731;50.364;8.958;2023-04-01T23:49:41;5.27;;;4.70;;
17228;SDS011;8731;50.364;8.958;2023-04-01T23:54:11;6.30;;;4.77;;
17228;SDS011;8731;50.364;8.958;2023-04-01T23:58:42;5.90;;;5.03;;
